sensor_id;sensor_type;location;lat;lon;timestamp;P1;durP1;ratioP1;P2;durP2;ratioP2
64712;SDS011;51140;45.340;5.980;2023-07-22T00:00:14;6.97;;;2.88;;
64712;SDS011;51140;45.340;5.980;2023-07-22T00:02:43;6.93;;;3.10;;
64712;SDS011;51140;45.340;5.980;2023-07-22T00:05:09;8.05;;;2.72;;
64712;SDS011;51140;45.340;5.980;2023-07-22T00:07:37;6.30;;;2.80;;
64712;SDS011;51140;45.340;5.980;2023-07-22T00:10:03;7.90;;;2.53;;
64712;SDS011;51140;45.340;5.980;2023-07-22T00:12:28;6.15;;;2.60;;
64712;SDS011;51140;45.340;5.980;2023-07-22T00:14:54;7.95;;;2.83;;
64712;SDS011;51140;45.340;5.980;2023-07-22T00:17:19;5.47;;;2.78;;
64712;SDS011;51140;45.340;5.980;2023-07-22T00:19:46;6.22;;;2.90;;
64712;SDS011;51140;45.340;5.980;2023-07-22T00:22:13;5.78;;;2.78;;
64712;SDS011;51140;45.340;5.980;2023-07-22T00:24:40;6.72;;;2.50;;
64712;SDS011;51140;45.340;5.980;2023-07-22T00:27:05;6.78;;;2.78;;
64712;SDS011;51140;45.340;5.980;2023-07-22T00:29:33;5.63;;;2.40;;
64712;SDS011;51140;45.340;5.980;2023-07-22T00:31:59;7.22;;;2.75;;
64712;SDS011;51140;45.340;5.980;2023-07-22T00:34:24;7.20;;;2.60;;
64712;SDS011;51140;45.340;5.980;2023-07-22T00:36:50;7.75;;;2.88;;
64712;SDS011;51140;45.340;5.980;2023-07-22T00:39:15;9.07;;;3.00;;
64712;SDS011;51140;45.340;5.980;2023-07-22T00:41:40;6.03;;;2.53;;
64712;SDS011;51140;45.340;5.980;2023-07-22T00:44:09;7.07;;;2.92;;
64712;SDS011;51140;45.340;5.980;2023-07-22T00:46:35;7.30;;;2.85;;
64712;SDS011;51140;45.340;5.980;2023-07-22T00:49:01;6.57;;;2.92;;
64712;SDS011;51140;45.340;5.980;2023-07-22T00:51:26;6.85;;;2.83;;
64712;SDS011;51140;45.340;5.980;2023-07-22T00:53:52;6.55;;;2.40;;
64712;SDS011;51140;45.340;5.980;2023-07-22T00:56:17;6.82;;;2.60;;
64712;SDS011;51140;45.340;5.980;2023-07-22T00:58:42;6.82;;;2.53;;
64712;SDS011;51140;45.340;5.980;2023-07-22T01:01:08;6.20;;;2.50;;
64712;SDS011;51140;45.340;5.980;2023-07-22T01:03:33;6.20;;;2.50;;
64712;SDS011;51140;45.340;5.980;2023-07-22T01:05:59;9.50;;;3.00;;
64712;SDS011;51140;45.340;5.980;2023-07-22T01:08:25;6.05;;;2.47;;
64712;SDS011;51140;45.340;5.980;2023-07-22T01:10:51;7.57;;;2.88;;
64712;SDS011;51140;45.340;5.980;2023-07-22T01:13:16;5.85;;;2.38;;
64712;SDS011;51140;45.340;5.980;2023-07-22T01:15:42;7.90;;;2.50;;
64712;SDS011;51140;45.340;5.980;2023-07-22T01:18:07;5.85;;;2.65;;
64712;SDS011;51140;45.340;5.980;2023-07-22T01:20:33;9.45;;;2.70;;
64712;SDS011;51140;45.340;5.980;2023-07-22T01:23:00;7.55;;;2.80;;
64712;SDS011;51140;45.340;5.980;2023-07-22T01:25:26;6.20;;;2.70;;
64712;SDS011;51140;45.340;5.980;2023-07-22T01:27:53;6.35;;;2.70;;
64712;SDS011;51140;45.340;5.980;2023-07-22T01:30:18;7.03;;;2.65;;
64712;SDS011;51140;45.340;5.980;2023-07-22T01:32:47;6.80;;;3.05;;
64712;SDS011;51140;45.340;5.980;2023-07-22T01:35:12;7.40;;;2.88;;
64712;SDS011;51140;45.340;5.980;2023-07-22T01:37:38;5.82;;;2.60;;
64712;SDS011;51140;45.340;5.980;2023-07-22T01:40:03;5.93;;;2.42;;
64712;SDS011;51140;45.340;5.980;2023-07-22T01:42:39;6.20;;;2.78;;
64712;SDS011;51140;45.340;5.980;2023-07-22T01:45:07;6.43;;;2.65;;
64712;SDS011;51140;45.340;5.980;2023-07-22T01:47:36;5.95;;;2.60;;
64712;SDS011;51140;45.340;5.980;2023-07-22T01:50:04;5.95;;;2.63;;
64712;SDS011;51140;45.340;5.980;2023-07-22T01:52:31;6.55;;;2.97;;
64712;SDS011;51140;45.340;5.980;2023-07-22T01:54:56;6.72;;;2.70;;
64712;SDS011;51140;45.340;5.980;2023-07-22T01:57:22;7.82;;;2.67;;
64712;SDS011;51140;45.340;5.980;2023-07-22T01:59:47;6.95;;;2.88;;
64712;SDS011;51140;45.340;5.980;2023-07-22T02:02:13;7.00;;;3.25;;
64712;SDS011;51140;45.340;5.980;2023-07-22T02:04:38;6.65;;;2.97;;
64712;SDS011;51140;45.340;5.980;2023-07-22T02:07:04;7.38;;;2.78;;
64712;SDS011;51140;45.340;5.980;2023-07-22T02:09:29;6.47;;;2.95;;
64712;SDS011;51140;45.340;5.980;2023-07-22T02:11:54;5.60;;;2.58;;
64712;SDS011;51140;45.340;5.980;2023-07-22T02:14:20;6.32;;;2.58;;
64712;SDS011;51140;45.340;5.980;2023-07-22T02:16:45;7.80;;;2.70;;
64712;SDS011;51140;45.340;5.980;2023-07-22T02:19:11;7.25;;;3.03;;
64712;SDS011;51140;45.340;5.980;2023-07-22T02:21:36;5.97;;;2.50;;
64712;SDS011;51140;45.340;5.980;2023-07-22T02:24:03;6.25;;;2.90;;
64712;SDS011;51140;45.340;5.980;2023-07-22T02:26:28;6.93;;;2.80;;
64712;SDS011;51140;45.340;5.980;2023-07-22T02:28:54;7.90;;;2.85;;
64712;SDS011;51140;45.340;5.980;2023-07-22T02:31:19;6.28;;;2.97;;
64712;SDS011;51140;45.340;5.980;2023-07-22T02:33:47;7.82;;;2.55;;
64712;SDS011;51140;45.340;5.980;2023-07-22T02:36:12;7.75;;;2.75;;
64712;SDS011;51140;45.340;5.980;2023-07-22T02:38:37;7.22;;;2.95;;
64712;SDS011;51140;45.340;5.980;2023-07-22T02:41:03;8.57;;;2.92;;
64712;SDS011;51140;45.340;5.980;2023-07-22T02:43:31;7.18;;;2.50;;
64712;SDS011;51140;45.340;5.980;2023-07-22T02:45:59;7.35;;;2.53;;
64712;SDS011;51140;45.340;5.980;2023-07-22T02:48:26;5.65;;;2.60;;
64712;SDS011;51140;45.340;5.980;2023-07-22T02:50:51;6.35;;;2.70;;
64712;SDS011;51140;45.340;5.980;2023-07-22T02:53:16;7.10;;;2.70;;
64712;SDS011;51140;45.340;5.980;2023-07-22T02:55:42;7.20;;;2.92;;
64712;SDS011;51140;45.340;5.980;2023-07-22T02:58:07;6.95;;;2.75;;
64712;SDS011;51140;45.340;5.980;2023-07-22T03:00:32;6.45;;;2.63;;
64712;SDS011;51140;45.340;5.980;2023-07-22T03:02:58;7.97;;;2.80;;
64712;SDS011;51140;45.340;5.980;2023-07-22T03:05:27;6.05;;;2.83;;
64712;SDS011;51140;45.340;5.980;2023-07-22T03:07:53;7.20;;;2.85;;
64712;SDS011;51140;45.340;5.980;2023-07-22T03:10:19;8.82;;;2.92;;
64712;SDS011;51140;45.340;5.980;2023-07-22T03:12:44;6.63;;;2.83;;
64712;SDS011;51140;45.340;5.980;2023-07-22T03:15:09;5.88;;;2.40;;
64712;SDS011;51140;45.340;5.980;2023-07-22T03:17:37;7.28;;;2.92;;
64712;SDS011;51140;45.340;5.980;2023-07-22T03:20:04;5.78;;;2.55;;
64712;SDS011;51140;45.340;5.980;2023-07-22T03:22:43;7.05;;;2.95;;
64712;SDS011;51140;45.340;5.980;2023-07-22T03:25:12;6.18;;;2.50;;
64712;SDS011;51140;45.340;5.980;2023-07-22T03:27:42;6.07;;;2.70;;
64712;SDS011;51140;45.340;5.980;2023-07-22T03:30:09;10.60;;;2.85;;
64712;SDS011;51140;45.340;5.980;2023-07-22T03:32:36;6.03;;;2.65;;
64712;SDS011;51140;45.340;5.980;2023-07-22T03:35:02;6.55;;;2.80;;
64712;SDS011;51140;45.340;5.980;2023-07-22T03:37:28;6.93;;;2.72;;
64712;SDS011;51140;45.340;5.980;2023-07-22T03:39:54;6.53;;;2.50;;
64712;SDS011;51140;45.340;5.980;2023-07-22T03:42:19;6.35;;;2.50;;
64712;SDS011;51140;45.340;5.980;2023-07-22T03:44:44;7.68;;;2.72;;
64712;SDS011;51140;45.340;5.980;2023-07-22T03:47:10;7.07;;;2.63;;
64712;SDS011;51140;45.340;5.980;2023-07-22T03:49:35;6.95;;;2.72;;
64712;SDS011;51140;45.340;5.980;2023-07-22T03:52:00;6.32;;;2.40;;
64712;SDS011;51140;45.340;5.980;2023-07-22T03:54:26;6.30;;;2.90;;
64712;SDS011;51140;45.340;5.980;2023-07-22T03:56:51;7.13;;;2.55;;
64712;SDS011;51140;45.340;5.980;2023-07-22T03:59:17;9.35;;;2.83;;
64712;SDS011;51140;45.340;5.980;2023-07-22T04:01:42;6.25;;;2.78;;
64712;SDS011;51140;45.340;5.980;2023-07-22T04:04:08;7.38;;;2.75;;
64712;SDS011;51140;45.340;5.980;2023-07-22T04:06:33;6.35;;;3.05;;
64712;SDS011;51140;45.340;5.980;2023-07-22T04:08:59;7.15;;;2.90;;
64712;SDS011;51140;45.340;5.980;2023-07-22T04:11:25;7.47;;;2.80;;
64712;SDS011;51140;45.340;5.980;2023-07-22T04:13:51;7.07;;;2.60;;
64712;SDS011;51140;45.340;5.980;2023-07-22T04:16:17;6.18;;;2.60;;
64712;SDS011;51140;45.340;5.980;2023-07-22T04:18:42;6.60;;;3.00;;
64712;SDS011;51140;45.340;5.980;2023-07-22T04:21:07;7.28;;;2.83;;
64712;SDS011;51140;45.340;5.980;2023-07-22T04:23:33;6.75;;;2.60;;
64712;SDS011;51140;45.340;5.980;2023-07-22T04:25:58;7.03;;;2.60;;
64712;SDS011;51140;45.340;5.980;2023-07-22T04:28:23;5.55;;;2.50;;
64712;SDS011;51140;45.340;5.980;2023-07-22T04:30:55;5.97;;;2.83;;
64712;SDS011;51140;45.340;5.980;2023-07-22T04:33:23;7.90;;;2.75;;
64712;SDS011;51140;45.340;5.980;2023-07-22T04:35:49;7.22;;;2.90;;
64712;SDS011;51140;45.340;5.980;2023-07-22T04:38:14;5.90;;;2.63;;
64712;SDS011;51140;45.340;5.980;2023-07-22T04:40:43;6.35;;;2.58;;
64712;SDS011;51140;45.340;5.980;2023-07-22T04:43:09;7.35;;;3.03;;
64712;SDS011;51140;45.340;5.980;2023-07-22T04:45:34;7.13;;;2.83;;
64712;SDS011;51140;45.340;5.980;2023-07-22T04:47:59;6.13;;;2.60;;
64712;SDS011;51140;45.340;5.980;2023-07-22T04:50:25;7.15;;;3.10;;
64712;SDS011;51140;45.340;5.980;2023-07-22T04:52:50;5.20;;;2.75;;
64712;SDS011;51140;45.340;5.980;2023-07-22T04:55:16;9.85;;;2.85;;
64712;SDS011;51140;45.340;5.980;2023-07-22T04:57:42;7.43;;;2.63;;
64712;SDS011;51140;45.340;5.980;2023-07-22T05:00:09;6.63;;;2.90;;
64712;SDS011;51140;45.340;5.980;2023-07-22T05:02:34;8.63;;;2.60;;
64712;SDS011;51140;45.340;5.980;2023-07-22T05:05:00;6.60;;;3.15;;
64712;SDS011;51140;45.340;5.980;2023-07-22T05:07:25;8.63;;;2.92;;
64712;SDS011;51140;45.340;5.980;2023-07-22T05:09:51;8.85;;;3.00;;
64712;SDS011;51140;45.340;5.980;2023-07-22T05:12:17;8.85;;;2.80;;
64712;SDS011;51140;45.340;5.980;2023-07-22T05:14:44;6.55;;;2.53;;
64712;SDS011;51140;45.340;5.980;2023-07-22T05:17:10;7.40;;;2.72;;
64712;SDS011;51140;45.340;5.980;2023-07-22T05:19:36;7.22;;;2.60;;
64712;SDS011;51140;45.340;5.980;2023-07-22T05:22:01;6.30;;;2.88;;
64712;SDS011;51140;45.340;5.980;2023-07-22T05:24:26;6.80;;;2.60;;
64712;SDS011;51140;45.340;5.980;2023-07-22T05:26:52;5.53;;;2.60;;
64712;SDS011;51140;45.340;5.980;2023-07-22T05:29:17;8.93;;;2.83;;
64712;SDS011;51140;45.340;5.980;2023-07-22T05:31:42;6.47;;;2.75;;
64712;SDS011;51140;45.340;5.980;2023-07-22T05:34:09;8.32;;;2.80;;
64712;SDS011;51140;45.340;5.980;2023-07-22T05:36:34;6.70;;;2.53;;
64712;SDS011;51140;45.340;5.980;2023-07-22T05:39:00;6.20;;;2.58;;
64712;SDS011;51140;45.340;5.980;2023-07-22T05:41:25;6.43;;;2.58;;
64712;SDS011;51140;45.340;5.980;2023-07-22T05:43:51;9.80;;;3.03;;
64712;SDS011;51140;45.340;5.980;2023-07-22T05:46:16;5.50;;;2.80;;
64712;SDS011;51140;45.340;5.980;2023-07-22T05:48:42;5.93;;;2.60;;
64712;SDS011;51140;45.340;5.980;2023-07-22T05:51:07;7.53;;;2.97;;
64712;SDS011;51140;45.340;5.980;2023-07-22T05:53:32;7.65;;;2.88;;
64712;SDS011;51140;45.340;5.980;2023-07-22T05:55:58;6.20;;;2.80;;
64712;SDS011;51140;45.340;5.980;2023-07-22T05:58:23;5.35;;;2.65;;
64712;SDS011;51140;45.340;5.980;2023-07-22T06:00:49;6.35;;;2.67;;
64712;SDS011;51140;45.340;5.980;2023-07-22T06:03:16;8.18;;;3.05;;
64712;SDS011;51140;45.340;5.980;2023-07-22T06:05:42;7.55;;;2.67;;
64712;SDS011;51140;45.340;5.980;2023-07-22T06:08:07;6.88;;;2.80;;
64712;SDS011;51140;45.340;5.980;2023-07-22T06:10:33;7.50;;;3.03;;
64712;SDS011;51140;45.340;5.980;2023-07-22T06:12:59;6.68;;;2.63;;
64712;SDS011;51140;45.340;5.980;2023-07-22T06:15:24;7.20;;;2.90;;
64712;SDS011;51140;45.340;5.980;2023-07-22T06:17:50;6.03;;;2.55;;
64712;SDS011;51140;45.340;5.980;2023-07-22T06:20:15;6.20;;;2.90;;
64712;SDS011;51140;45.340;5.980;2023-07-22T06:22:40;6.25;;;3.15;;
64712;SDS011;51140;45.340;5.980;2023-07-22T06:25:06;7.05;;;2.75;;
64712;SDS011;51140;45.340;5.980;2023-07-22T06:27:32;6.60;;;2.85;;
64712;SDS011;51140;45.340;5.980;2023-07-22T06:29:58;8.10;;;2.92;;
64712;SDS011;51140;45.340;5.980;2023-07-22T06:32:23;8.52;;;3.20;;
64712;SDS011;51140;45.340;5.980;2023-07-22T06:34:49;7.40;;;2.80;;
64712;SDS011;51140;45.340;5.980;2023-07-22T06:37:14;8.43;;;2.80;;
64712;SDS011;51140;45.340;5.980;2023-07-22T06:39:39;7.95;;;3.10;;
64712;SDS011;51140;45.340;5.980;2023-07-22T06:42:05;8.05;;;3.28;;
64712;SDS011;51140;45.340;5.980;2023-07-22T06:44:30;7.22;;;3.13;;
64712;SDS011;51140;45.340;5.980;2023-07-22T06:46:56;8.35;;;3.13;;
64712;SDS011;51140;45.340;5.980;2023-07-22T06:49:21;7.43;;;3.28;;
64712;SDS011;51140;45.340;5.980;2023-07-22T06:51:47;8.50;;;3.05;;
64712;SDS011;51140;45.340;5.980;2023-07-22T06:54:12;8.57;;;3.20;;
64712;SDS011;51140;45.340;5.980;2023-07-22T06:56:38;5.80;;;2.80;;
64712;SDS011;51140;45.340;5.980;2023-07-22T06:59:03;7.05;;;3.33;;
64712;SDS011;51140;45.340;5.980;2023-07-22T07:01:28;7.90;;;3.30;;
64712;SDS011;51140;45.340;5.980;2023-07-22T07:03:54;7.65;;;2.97;;
64712;SDS011;51140;45.340;5.980;2023-07-22T07:06:19;7.97;;;3.20;;
64712;SDS011;51140;45.340;5.980;2023-07-22T07:08:45;6.93;;;3.22;;
64712;SDS011;51140;45.340;5.980;2023-07-22T07:11:10;6.85;;;2.70;;
64712;SDS011;51140;45.340;5.980;2023-07-22T07:13:36;6.25;;;3.20;;
64712;SDS011;51140;45.340;5.980;2023-07-22T07:16:21;6.65;;;3.08;;
64712;SDS011;51140;45.340;5.980;2023-07-22T07:18:48;8.27;;;3.60;;
64712;SDS011;51140;45.340;5.980;2023-07-22T07:21:14;5.90;;;2.72;;
64712;SDS011;51140;45.340;5.980;2023-07-22T07:23:39;6.53;;;3.33;;
64712;SDS011;51140;45.340;5.980;2023-07-22T07:26:04;6.65;;;3.10;;
64712;SDS011;51140;45.340;5.980;2023-07-22T07:28:30;8.50;;;3.00;;
64712;SDS011;51140;45.340;5.980;2023-07-22T07:30:55;7.43;;;3.30;;
64712;SDS011;51140;45.340;5.980;2023-07-22T07:33:21;11.38;;;3.72;;
64712;SDS011;51140;45.340;5.980;2023-07-22T07:35:46;7.13;;;3.40;;
64712;SDS011;51140;45.340;5.980;2023-07-22T07:38:12;5.85;;;2.83;;
64712;SDS011;51140;45.340;5.980;2023-07-22T07:40:37;9.32;;;2.95;;
64712;SDS011;51140;45.340;5.980;2023-07-22T07:43:03;7.50;;;2.97;;
64712;SDS011;51140;45.340;5.980;2023-07-22T07:45:28;6.72;;;3.03;;
64712;SDS011;51140;45.340;5.980;2023-07-22T07:47:54;6.93;;;2.95;;
64712;SDS011;51140;45.340;5.980;2023-07-22T07:50:19;6.13;;;3.00;;
64712;SDS011;51140;45.340;5.980;2023-07-22T07:52:45;7.03;;;3.20;;
64712;SDS011;51140;45.340;5.980;2023-07-22T07:55:10;7.18;;;3.25;;
64712;SDS011;51140;45.340;5.980;2023-07-22T07:57:36;6.97;;;3.40;;
64712;SDS011;51140;45.340;5.980;2023-07-22T08:00:02;7.20;;;3.00;;
64712;SDS011;51140;45.340;5.980;2023-07-22T08:02:28;8.07;;;2.78;;
64712;SDS011;51140;45.340;5.980;2023-07-22T08:04:53;6.90;;;3.15;;
64712;SDS011;51140;45.340;5.980;2023-07-22T08:07:19;6.97;;;3.05;;
64712;SDS011;51140;45.340;5.980;2023-07-22T08:09:46;6.72;;;3.30;;
64712;SDS011;51140;45.340;5.980;2023-07-22T08:12:14;6.30;;;3.08;;
64712;SDS011;51140;45.340;5.980;2023-07-22T08:14:39;5.97;;;2.63;;
64712;SDS011;51140;45.340;5.980;2023-07-22T08:17:05;6.65;;;2.90;;
64712;SDS011;51140;45.340;5.980;2023-07-22T08:19:30;6.75;;;2.92;;
64712;SDS011;51140;45.340;5.980;2023-07-22T08:21:56;6.25;;;3.22;;
64712;SDS011;51140;45.340;5.980;2023-07-22T08:24:21;6.35;;;2.80;;
64712;SDS011;51140;45.340;5.980;2023-07-22T08:26:46;6.03;;;2.95;;
64712;SDS011;51140;45.340;5.980;2023-07-22T08:29:12;7.95;;;3.20;;
64712;SDS011;51140;45.340;5.980;2023-07-22T08:31:37;6.00;;;2.97;;
64712;SDS011;51140;45.340;5.980;2023-07-22T08:34:03;6.45;;;2.75;;
64712;SDS011;51140;45.340;5.980;2023-07-22T08:36:29;9.10;;;3.00;;
64712;SDS011;51140;45.340;5.980;2023-07-22T08:38:54;7.00;;;3.17;;
64712;SDS011;51140;45.340;5.980;2023-07-22T08:41:20;6.63;;;3.05;;
64712;SDS011;51140;45.340;5.980;2023-07-22T08:43:47;7.35;;;3.25;;
64712;SDS011;51140;45.340;5.980;2023-07-22T08:46:15;6.03;;;3.10;;
64712;SDS011;51140;45.340;5.980;2023-07-22T08:48:49;5.88;;;2.63;;
64712;SDS011;51140;45.340;5.980;2023-07-22T08:51:18;7.68;;;2.95;;
64712;SDS011;51140;45.340;5.980;2023-07-22T08:53:45;9.68;;;2.80;;
64712;SDS011;51140;45.340;5.980;2023-07-22T08:56:11;6.45;;;2.88;;
64712;SDS011;51140;45.340;5.980;2023-07-22T08:58:37;9.35;;;3.45;;
64712;SDS011;51140;45.340;5.980;2023-07-22T09:01:04;8.05;;;3.30;;
64712;SDS011;51140;45.340;5.980;2023-07-22T09:03:30;5.70;;;3.03;;
64712;SDS011;51140;45.340;5.980;2023-07-22T09:05:57;8.10;;;3.13;;
64712;SDS011;51140;45.340;5.980;2023-07-22T09:08:24;5.72;;;2.95;;
64712;SDS011;51140;45.340;5.980;2023-07-22T09:10:49;10.20;;;3.03;;
64712;SDS011;51140;45.340;5.980;2023-07-22T09:13:15;8.00;;;3.22;;
64712;SDS011;51140;45.340;5.980;2023-07-22T09:15:43;11.00;;;3.35;;
64712;SDS011;51140;45.340;5.980;2023-07-22T09:18:10;6.80;;;3.38;;
64712;SDS011;51140;45.340;5.980;2023-07-22T09:20:35;8.23;;;3.10;;
64712;SDS011;51140;45.340;5.980;2023-07-22T09:23:01;6.88;;;3.50;;
64712;SDS011;51140;45.340;5.980;2023-07-22T09:25:27;7.45;;;3.05;;
64712;SDS011;51140;45.340;5.980;2023-07-22T09:27:57;6.43;;;3.20;;
64712;SDS011;51140;45.340;5.980;2023-07-22T09:30:32;8.13;;;3.30;;
64712;SDS011;51140;45.340;5.980;2023-07-22T09:32:59;6.25;;;2.60;;
64712;SDS011;51140;45.340;5.980;2023-07-22T09:35:26;8.68;;;3.17;;
64712;SDS011;51140;45.340;5.980;2023-07-22T09:37:54;7.90;;;3.00;;
64712;SDS011;51140;45.340;5.980;2023-07-22T09:40:20;7.45;;;3.15;;
64712;SDS011;51140;45.340;5.980;2023-07-22T09:42:54;7.43;;;2.60;;
64712;SDS011;51140;45.340;5.980;2023-07-22T09:45:22;6.07;;;2.70;;
64712;SDS011;51140;45.340;5.980;2023-07-22T09:47:49;12.30;;;2.70;;
64712;SDS011;51140;45.340;5.980;2023-07-22T09:50:17;6.55;;;2.60;;
64712;SDS011;51140;45.340;5.980;2023-07-22T09:52:50;6.05;;;2.10;;
64712;SDS011;51140;45.340;5.980;2023-07-22T09:55:18;6.70;;;2.53;;
64712;SDS011;51140;45.340;5.980;2023-07-22T09:57:46;6.28;;;2.80;;
64712;SDS011;51140;45.340;5.980;2023-07-22T10:00:18;14.70;;;2.70;;
64712;SDS011;51140;45.340;5.980;2023-07-22T10:02:48;6.00;;;2.40;;
64712;SDS011;51140;45.340;5.980;2023-07-22T10:05:17;8.30;;;2.53;;
64712;SDS011;51140;45.340;5.980;2023-07-22T10:07:51;7.32;;;2.78;;
64712;SDS011;51140;45.340;5.980;2023-07-22T10:10:23;6.85;;;2.33;;
64712;SDS011;51140;45.340;5.980;2023-07-22T10:12:51;8.27;;;2.38;;
64712;SDS011;51140;45.340;5.980;2023-07-22T10:15:19;8.73;;;2.20;;
64712;SDS011;51140;45.340;5.980;2023-07-22T10:17:44;7.38;;;2.08;;
64712;SDS011;51140;45.340;5.980;2023-07-22T10:20:11;6.70;;;2.10;;
64712;SDS011;51140;45.340;5.980;2023-07-22T10:22:45;5.43;;;1.83;;
64712;SDS011;51140;45.340;5.980;2023-07-22T10:25:12;4.60;;;1.90;;
64712;SDS011;51140;45.340;5.980;2023-07-22T10:27:40;4.75;;;2.00;;
64712;SDS011;51140;45.340;5.980;2023-07-22T10:30:10;6.65;;;1.80;;
64712;SDS011;51140;45.340;5.980;2023-07-22T10:32:46;4.35;;;1.60;;
64712;SDS011;51140;45.340;5.980;2023-07-22T10:37:56;4.60;;;1.70;;
64712;SDS011;51140;45.340;5.980;2023-07-22T10:40:45;6.03;;;1.73;;
64712;SDS011;51140;45.340;5.980;2023-07-22T10:43:12;9.15;;;1.85;;
64712;SDS011;51140;45.340;5.980;2023-07-22T10:45:41;6.30;;;1.80;;
64712;SDS011;51140;45.340;5.980;2023-07-22T10:48:08;4.60;;;1.88;;
64712;SDS011;51140;45.340;5.980;2023-07-22T10:50:41;4.03;;;1.63;;
64712;SDS011;51140;45.340;5.980;2023-07-22T11:01:24;4.35;;;1.60;;
64712;SDS011;51140;45.340;5.980;2023-07-22T11:04:40;4.32;;;1.70;;
64712;SDS011;51140;45.340;5.980;2023-07-22T11:06:56;5.45;;;1.80;;
64712;SDS011;51140;45.340;5.980;2023-07-22T11:11:56;4.38;;;1.60;;
64712;SDS011;51140;45.340;5.980;2023-07-22T11:14:25;3.70;;;1.50;;
64712;SDS011;51140;45.340;5.980;2023-07-22T11:16:52;4.55;;;1.83;;
64712;SDS011;51140;45.340;5.980;2023-07-22T11:19:19;3.40;;;1.30;;
64712;SDS011;51140;45.340;5.980;2023-07-22T11:21:46;3.97;;;1.58;;
64712;SDS011;51140;45.340;5.980;2023-07-22T11:24:12;4.00;;;1.77;;
64712;SDS011;51140;45.340;5.980;2023-07-22T11:26:39;5.07;;;2.05;;
64712;SDS011;51140;45.340;5.980;2023-07-22T11:29:06;6.57;;;2.40;;
64712;SDS011;51140;45.340;5.980;2023-07-22T11:31:39;3.83;;;1.70;;
64712;SDS011;51140;45.340;5.980;2023-07-22T11:34:28;4.53;;;2.10;;
64712;SDS011;51140;45.340;5.980;2023-07-22T11:36:53;5.07;;;2.28;;
64712;SDS011;51140;45.340;5.980;2023-07-22T11:39:20;5.57;;;1.98;;
64712;SDS011;51140;45.340;5.980;2023-07-22T11:41:47;5.40;;;2.10;;
64712;SDS011;51140;45.340;5.980;2023-07-22T11:44:14;7.30;;;1.92;;
64712;SDS011;51140;45.340;5.980;2023-07-22T11:46:58;5.22;;;2.00;;
64712;SDS011;51140;45.340;5.980;2023-07-22T11:49:37;4.60;;;2.15;;
64712;SDS011;51140;45.340;5.980;2023-07-22T11:52:04;4.60;;;2.00;;
64712;SDS011;51140;45.340;5.980;2023-07-22T11:54:35;4.40;;;1.88;;
64712;SDS011;51140;45.340;5.980;2023-07-22T11:57:17;3.58;;;1.70;;
64712;SDS011;51140;45.340;5.980;2023-07-22T11:59:50;4.50;;;1.80;;
64712;SDS011;51140;45.340;5.980;2023-07-22T12:02:21;4.53;;;2.10;;
64712;SDS011;51140;45.340;5.980;2023-07-22T12:04:53;5.22;;;2.17;;
64712;SDS011;51140;45.340;5.980;2023-07-22T12:07:24;6.05;;;2.60;;
64712;SDS011;51140;45.340;5.980;2023-07-22T12:09:51;4.97;;;2.35;;
64712;SDS011;51140;45.340;5.980;2023-07-22T12:12:17;5.78;;;2.20;;
64712;SDS011;51140;45.340;5.980;2023-07-22T12:14:43;5.20;;;2.10;;
64712;SDS011;51140;45.340;5.980;2023-07-22T12:17:08;6.88;;;2.35;;
64712;SDS011;51140;45.340;5.980;2023-07-22T12:19:34;5.45;;;2.30;;
64712;SDS011;51140;45.340;5.980;2023-07-22T12:22:00;8.07;;;2.20;;
64712;SDS011;51140;45.340;5.980;2023-07-22T12:24:27;4.22;;;1.83;;
64712;SDS011;51140;45.340;5.980;2023-07-22T12:26:55;5.55;;;2.22;;
64712;SDS011;51140;45.340;5.980;2023-07-22T12:29:20;4.80;;;2.00;;
64712;SDS011;51140;45.340;5.980;2023-07-22T12:31:47;5.03;;;2.10;;
64712;SDS011;51140;45.340;5.980;2023-07-22T12:34:12;6.25;;;2.15;;
64712;SDS011;51140;45.340;5.980;2023-07-22T12:36:38;4.68;;;2.03;;
64712;SDS011;51140;45.340;5.980;2023-07-22T12:39:03;4.60;;;2.03;;
64712;SDS011;51140;45.340;5.980;2023-07-22T12:41:29;6.45;;;2.33;;
64712;SDS011;51140;45.340;5.980;2023-07-22T12:43:55;4.78;;;2.22;;
64712;SDS011;51140;45.340;5.980;2023-07-22T12:46:20;5.07;;;2.28;;
64712;SDS011;51140;45.340;5.980;2023-07-22T12:48:45;6.10;;;2.17;;
64712;SDS011;51140;45.340;5.980;2023-07-22T12:51:11;7.90;;;2.50;;
64712;SDS011;51140;45.340;5.980;2023-07-22T12:53:38;4.95;;;2.13;;
64712;SDS011;51140;45.340;5.980;2023-07-22T12:56:03;6.05;;;2.10;;
64712;SDS011;51140;45.340;5.980;2023-07-22T12:58:30;6.88;;;2.50;;
64712;SDS011;51140;45.340;5.980;2023-07-22T13:00:55;6.88;;;2.60;;
64712;SDS011;51140;45.340;5.980;2023-07-22T13:03:21;5.47;;;2.42;;
64712;SDS011;51140;45.340;5.980;2023-07-22T13:05:46;5.25;;;2.10;;
64712;SDS011;51140;45.340;5.980;2023-07-22T13:08:11;9.68;;;2.47;;
64712;SDS011;51140;45.340;5.980;2023-07-22T13:10:37;4.30;;;2.00;;
64712;SDS011;51140;45.340;5.980;2023-07-22T13:13:04;7.28;;;2.33;;
64712;SDS011;51140;45.340;5.980;2023-07-22T13:15:30;7.15;;;2.40;;
64712;SDS011;51140;45.340;5.980;2023-07-22T13:17:55;5.10;;;2.25;;
64712;SDS011;51140;45.340;5.980;2023-07-22T13:20:21;4.80;;;1.98;;
64712;SDS011;51140;45.340;5.980;2023-07-22T13:22:46;4.53;;;2.20;;
64712;SDS011;51140;45.340;5.980;2023-07-22T13:25:11;6.18;;;2.30;;
64712;SDS011;51140;45.340;5.980;2023-07-22T13:27:37;4.38;;;2.10;;
64712;SDS011;51140;45.340;5.980;2023-07-22T13:30:05;5.57;;;2.20;;
64712;SDS011;51140;45.340;5.980;2023-07-22T13:32:34;7.07;;;2.33;;
64712;SDS011;51140;45.340;5.980;2023-07-22T13:34:59;5.63;;;2.10;;
64712;SDS011;51140;45.340;5.980;2023-07-22T13:37:25;4.55;;;2.08;;
64712;SDS011;51140;45.340;5.980;2023-07-22T13:39:51;5.15;;;2.20;;
64712;SDS011;51140;45.340;5.980;2023-07-22T13:42:16;4.85;;;2.20;;
64712;SDS011;51140;45.340;5.980;2023-07-22T13:44:41;5.97;;;2.25;;
64712;SDS011;51140;45.340;5.980;2023-07-22T13:47:07;3.95;;;1.67;;
64712;SDS011;51140;45.340;5.980;2023-07-22T13:49:32;5.25;;;2.20;;
64712;SDS011;51140;45.340;5.980;2023-07-22T13:51:58;3.97;;;1.80;;
64712;SDS011;51140;45.340;5.980;2023-07-22T13:54:23;5.35;;;2.30;;
64712;SDS011;51140;45.340;5.980;2023-07-22T13:56:48;5.28;;;2.00;;
64712;SDS011;51140;45.340;5.980;2023-07-22T13:59:14;4.38;;;2.00;;
64712;SDS011;51140;45.340;5.980;2023-07-22T14:01:39;5.30;;;2.05;;
64712;SDS011;51140;45.340;5.980;2023-07-22T14:04:05;6.10;;;2.00;;
64712;SDS011;51140;45.340;5.980;2023-07-22T14:06:30;6.78;;;2.15;;
64712;SDS011;51140;45.340;5.980;2023-07-22T14:08:57;6.22;;;2.20;;
64712;SDS011;51140;45.340;5.980;2023-07-22T14:11:22;5.15;;;2.28;;
64712;SDS011;51140;45.340;5.980;2023-07-22T14:13:48;4.53;;;1.95;;
64712;SDS011;51140;45.340;5.980;2023-07-22T14:16:13;5.45;;;2.00;;
64712;SDS011;51140;45.340;5.980;2023-07-22T14:18:38;7.10;;;1.90;;
64712;SDS011;51140;45.340;5.980;2023-07-22T14:21:04;5.40;;;2.28;;
64712;SDS011;51140;45.340;5.980;2023-07-22T14:23:29;4.63;;;1.80;;
64712;SDS011;51140;45.340;5.980;2023-07-22T14:25:55;5.13;;;1.92;;
64712;SDS011;51140;45.340;5.980;2023-07-22T14:28:20;7.10;;;1.85;;
64712;SDS011;51140;45.340;5.980;2023-07-22T14:30:45;4.82;;;1.98;;
64712;SDS011;51140;45.340;5.980;2023-07-22T14:33:11;4.07;;;1.83;;
64712;SDS011;51140;45.340;5.980;2023-07-22T14:35:36;5.28;;;1.90;;
64712;SDS011;51140;45.340;5.980;2023-07-22T14:38:01;6.90;;;2.20;;
64712;SDS011;51140;45.340;5.980;2023-07-22T14:40:27;4.95;;;2.00;;
64712;SDS011;51140;45.340;5.980;2023-07-22T14:42:54;5.88;;;2.03;;
64712;SDS011;51140;45.340;5.980;2023-07-22T14:45:19;4.85;;;2.25;;
64712;SDS011;51140;45.340;5.980;2023-07-22T14:47:45;6.47;;;2.30;;
64712;SDS011;51140;45.340;5.980;2023-07-22T14:50:10;5.43;;;2.40;;
64712;SDS011;51140;45.340;5.980;2023-07-22T14:52:36;5.55;;;2.33;;
64712;SDS011;51140;45.340;5.980;2023-07-22T14:55:01;5.65;;;1.90;;
64712;SDS011;51140;45.340;5.980;2023-07-22T14:57:26;4.43;;;1.90;;